Time;durP1;ratioP1;P1;durP2;ratioP2;P2;SDS_P1;SDS_P2;PMS_P1;PMS_P2;Temp;Humidity;BMP_temperature;BMP_pressure;BME280_temperature;BME280_humidity;BME280_pressure;Samples;Min_cycle;Max_cycle;Signal;HPM_P1;HPM_P2
2023/04/01 00:03:38;;;;;;;2.15;1.27;;;;;;;19.36;50.92;95195.47;10347480;28;20046;-77
2023/04/01 00:08:58;;;;;;;2.58;1.20;;;;;;;19.35;51.03;95189.31;10374368;28;20479;-78
2023/04/01 00:14:17;;;;;;;1.70;1.10;;;;;;;19.34;50.85;95197.75;10374119;28;20038;-78
2023/04/01 00:19:37;;;;;;;2.00;1.20;;;;;;;19.34;50.90;95186.97;10388815;28;20042;-77
2023/04/01 00:24:56;;;;;;;1.75;1.13;;;;;;;19.33;50.87;95201.63;10373910;28;20076;-78
2023/04/01 00:30:16;;;;;;;1.83;1.00;;;;;;;19.32;50.71;95194.66;10348305;28;20065;-77
2023/04/01 00:35:36;;;;;;;1.65;1.00;;;;;;;19.30;50.77;95181.50;10388526;28;20041;-77
2023/04/01 00:40:58;;;;;;;1.90;1.20;;;;;;;19.30;50.65;95191.53;10373384;28;20410;-77
2023/04/01 00:46:18;;;;;;;2.42;1.20;;;;;;;19.30;50.63;95191.53;10359706;28;20482;-77
2023/04/01 00:51:39;;;;;;;1.83;0.90;;;;;;;19.28;50.55;95191.88;10359277;28;20449;-78
2023/04/01 00:57:05;;;;;;;1.83;1.15;;;;;;;19.28;50.60;95191.13;10387516;28;20049;-78
2023/04/01 01:02:25;;;;;;;1.90;0.93;;;;;;;19.27;50.64;95182.25;10373041;28;20045;-73
2023/04/01 01:07:53;;;;;;;1.35;1.00;;;;;;;19.26;50.55;95182.59;10358724;28;20045;-73
2023/04/01 01:13:22;;;;;;;1.60;0.90;;;;;;;19.26;50.42;95186.06;10372527;28;20042;-73
2023/04/01 01:18:58;;;;;;;1.30;0.82;;;;;;;19.25;50.30;95181.81;10357171;28;20049;-73
2023/04/01 01:24:29;;;;;;;0.88;0.75;;;;;;;19.24;50.42;95176.78;10372311;28;20057;-73
2023/04/01 01:30:20;;;;;;;1.00;0.80;;;;;;;19.25;50.41;95183.72;10389040;28;20053;-73
2023/04/01 01:35:46;;;;;;;1.63;0.90;;;;;;;19.23;50.42;95180.59;10371914;28;20429;-73
2023/04/01 01:41:12;;;;;;;1.52;0.80;;;;;;;19.22;50.32;95179.06;10372457;28;20487;-73
2023/04/01 01:46:32;;;;;;;1.02;0.80;;;;;;;19.20;50.28;95174.00;10371636;28;20045;-73
2023/04/01 01:51:52;;;;;;;0.73;0.68;;;;;;;19.20;50.27;95165.91;10385101;28;20041;-73
2023/04/01 01:57:12;;;;;;;0.95;0.70;;;;;;;19.19;50.20;95177.06;10371416;28;20038;-73
2023/04/01 02:02:35;;;;;;;1.52;1.00;;;;;;;19.19;50.07;95190.56;10371804;28;20042;-73
2023/04/01 02:08:26;;;;;;;1.33;0.90;;;;;;;19.17;50.30;95182.84;10371294;28;20041;-77
2023/04/01 02:13:53;;;;;;;1.70;0.80;;;;;;;19.16;50.05;95182.06;10353190;28;20046;-73
2023/04/01 02:19:13;;;;;;;0.95;0.80;;;;;;;19.16;50.22;95176.66;10384912;28;20053;-73
2023/04/01 02:24:35;;;;;;;0.85;0.70;;;;;;;19.16;50.21;95173.19;10357510;28;20108;-74
2023/04/01 02:29:54;;;;;;;0.77;0.70;;;;;;;19.14;50.03;95178.16;10380997;28;20112;-74
2023/04/01 02:35:15;;;;;;;0.80;0.73;;;;;;;19.13;50.06;95182.78;10392671;28;20046;-74
2023/04/01 02:40:50;;;;;;;1.00;0.80;;;;;;;19.13;50.08;95193.59;10377813;28;20041;-73
2023/04/01 02:46:10;;;;;;;1.13;0.82;;;;;;;19.13;50.07;95193.59;10364025;28;20053;-73
2023/04/01 02:51:30;;;;;;;1.00;0.80;;;;;;;19.12;50.07;95200.09;10363773;28;20109;-74
2023/04/01 02:56:49;;;;;;;1.13;0.60;;;;;;;19.11;49.92;95197.75;10363576;28;20384;-73
2023/04/01 03:02:09;;;;;;;0.93;0.68;;;;;;;19.10;49.83;95198.91;10377049;28;20041;-74
2023/04/01 03:07:29;;;;;;;0.98;0.60;;;;;;;19.09;49.84;95195.44;10349511;28;20068;-74
2023/04/01 03:12:48;;;;;;;0.98;0.70;;;;;;;19.09;49.89;95208.13;10377793;28;20046;-74
2023/04/01 03:18:07;;;;;;;1.48;0.80;;;;;;;19.09;49.85;95213.53;10362680;28;20483;-74
2023/04/01 03:23:27;;;;;;;0.98;0.63;;;;;;;19.06;49.98;95212.34;10376129;28;20054;-74
2023/04/01 03:28:47;;;;;;;0.95;0.82;;;;;;;19.06;49.91;95215.03;10367328;28;20461;-73
2023/04/01 03:34:07;;;;;;;1.30;0.80;;;;;;;19.06;49.85;95212.34;10375767;28;20108;-73
2023/04/01 03:39:27;;;;;;;0.85;0.63;;;;;;;19.05;49.93;95218.91;10361530;28;20479;-73
2023/04/01 03:44:48;;;;;;;0.82;0.68;;;;;;;19.04;49.96;95220.03;10361824;28;20048;-73
2023/04/01 03:50:08;;;;;;;1.35;0.90;;;;;;;19.04;49.79;95213.84;10347891;28;20046;-73
2023/04/01 03:55:28;;;;;;;1.23;0.70;;;;;;;19.03;49.69;95226.53;10348340;28;20042;-73
2023/04/01 04:00:47;;;;;;;0.98;0.70;;;;;;;19.03;49.86;95225.78;10374646;28;20548;-73
2023/04/01 04:06:11;;;;;;;0.73;0.50;;;;;;;19.02;49.75;95238.50;10360948;28;20050;-73
2023/04/01 04:11:32;;;;;;;0.65;0.65;;;;;;;19.01;49.74;95242.31;10389300;28;20406;-73
2023/04/01 04:16:52;;;;;;;1.77;0.90;;;;;;;19.01;49.80;95249.63;10360512;28;20053;-74
2023/04/01 04:22:12;;;;;;;0.60;0.60;;;;;;;18.99;49.72;95247.28;10360096;28;20045;-73
2023/04/01 04:27:32;;;;;;;1.60;0.68;;;;;;;19.00;49.84;95264.28;10383085;28;20058;-73
2023/04/01 04:33:04;;;;;;;1.13;0.60;;;;;;;19.00;49.78;95264.28;10361325;28;20046;-73
2023/04/01 04:38:23;;;;;;;0.60;0.60;;;;;;;18.98;49.77;95269.25;10388077;28;20072;-73
2023/04/01 04:43:52;;;;;;;0.85;0.60;;;;;;;18.98;49.68;95271.97;10359532;28;20045;-73
2023/04/01 04:49:12;;;;;;;0.73;0.70;;;;;;;18.96;49.80;95266.91;10372843;28;20049;-73
2023/04/01 04:54:31;;;;;;;0.70;0.70;;;;;;;18.95;49.73;95268.84;10387693;28;20038;-73
2023/04/01 04:59:53;;;;;;;0.50;0.50;;;;;;;18.95;49.69;95273.44;10359424;28;20159;-73
2023/04/01 05:05:33;;;;;;;0.98;0.65;;;;;;;18.95;49.74;95270.75;10387261;28;20049;-73
2023/04/01 05:11:01;;;;;;;0.77;0.60;;;;;;;18.94;49.72;95280.00;10359863;28;20049;-73
2023/04/01 05:16:21;;;;;;;0.85;0.55;;;;;;;18.93;49.57;95278.41;10345372;28;20506;-74
2023/04/01 05:21:41;;;;;;;0.93;0.60;;;;;;;18.92;49.79;95282.25;10372259;28;20038;-74
2023/04/01 05:27:01;;;;;;;0.60;0.50;;;;;;;18.93;50.31;95286.50;10351429;28;20108;-73
2023/04/01 05:32:22;;;;;;;0.55;0.55;;;;;;;18.91;50.38;95292.25;10358396;28;20046;-74
2023/04/01 05:37:42;;;;;;;0.63;0.50;;;;;;;18.91;50.46;95288.78;10358360;28;20490;-73
2023/04/01 05:43:02;;;;;;;0.77;0.47;;;;;;;18.90;50.48;95288.00;10358249;28;20479;-73
2023/04/01 05:48:22;;;;;;;0.75;0.50;;;;;;;18.92;50.42;95290.34;10358088;28;20042;-74
2023/04/01 05:53:42;;;;;;;0.57;0.57;;;;;;;18.90;50.64;95282.63;10371572;28;20046;-73
2023/04/01 05:59:01;;;;;;;1.67;0.60;;;;;;;18.92;50.66;95282.25;10371708;28;20061;-74
2023/04/01 06:04:21;;;;;;;0.70;0.50;;;;;;;18.93;51.05;95287.31;10377747;28;20056;-73
2023/04/01 06:09:42;;;;;;;0.57;0.57;;;;;;;18.93;50.97;95292.72;10379084;28;20046;-73
2023/04/01 06:15:20;;;;;;;0.60;0.50;;;;;;;18.95;51.03;95297.72;10365013;28;20084;-73
2023/04/01 06:21:12;;;;;;;0.73;0.57;;;;;;;18.96;50.76;95302.00;10378762;28;20092;-73
2023/04/01 06:27:18;;;;;;;1.10;0.50;;;;;;;18.96;50.95;95296.59;10363550;28;20453;-73
2023/04/01 06:32:54;;;;;;;0.90;0.50;;;;;;;18.99;50.74;95305.91;10378201;28;20088;-73
2023/04/01 06:38:42;;;;;;;0.57;0.43;;;;;;;19.00;50.69;95308.25;10364171;28;20490;-73
2023/04/01 06:44:33;;;;;;;0.82;0.60;;;;;;;19.03;50.61;95307.50;10364182;28;20048;-73
2023/04/01 06:50:16;;;;;;;0.63;0.52;;;;;;;19.03;50.37;95310.22;10369366;28;20068;-73
2023/04/01 06:56:07;;;;;;;0.77;0.50;;;;;;;19.07;50.40;95319.19;10380203;28;20115;-73
2023/04/01 07:02:23;;;;;;;1.38;0.50;;;;;;;19.09;50.38;95313.41;10298171;28;20511;-73
2023/04/01 07:07:48;;;;;;;1.80;0.57;;;;;;;19.10;50.24;95321.16;10375063;28;20081;-73
2023/04/01 07:13:29;;;;;;;0.60;0.50;;;;;;;19.14;50.36;95318.53;10362423;28;20061;-73
2023/04/01 07:19:01;;;;;;;1.05;0.50;;;;;;;19.16;49.98;95329.75;10350227;28;20100;-73
2023/04/01 07:24:36;;;;;;;0.50;0.50;;;;;;;19.17;49.98;95318.59;10376251;28;20069;-73
2023/04/01 07:30:01;;;;;;;0.70;0.50;;;;;;;19.17;50.09;95332.09;10324526;28;20054;-73
2023/04/01 07:35:34;;;;;;;0.57;0.32;;;;;;;19.20;49.88;95332.53;10335028;28;20053;-73
2023/04/01 07:41:27;;;;;;;0.50;0.50;;;;;;;19.22;49.70;95333.72;10335280;28;20103;-73
2023/04/01 07:46:56;;;;;;;0.50;0.32;;;;;;;19.25;49.66;95345.72;10335024;28;20046;-73
2023/04/01 07:52:21;;;;;;;1.92;0.57;;;;;;;19.27;49.59;95346.94;10334819;28;20043;-73
2023/04/01 07:57:50;;;;;;;0.68;0.50;;;;;;;19.29;49.58;95351.97;10347870;28;20046;-73
2023/04/01 08:03:19;;;;;;;2.15;0.60;;;;;;;19.32;49.72;95356.66;10334440;28;20384;-73
2023/04/01 08:09:02;;;;;;;3.83;0.60;;;;;;;19.33;49.65;95356.31;10347991;28;20423;-73
2023/04/01 08:14:47;;;;;;;0.77;0.52;;;;;;;19.38;49.71;95370.66;10348394;28;20081;-73
2023/04/01 08:20:53;;;;;;;1.27;0.60;;;;;;;19.40;49.92;95369.16;10347427;28;20042;-73
2023/04/01 08:26:31;;;;;;;0.55;0.43;;;;;;;19.44;49.86;95363.81;10335530;28;20054;-73
2023/04/01 08:32:03;;;;;;;0.98;0.50;;;;;;;19.46;49.50;95366.94;10374066;28;20038;-73
2023/04/01 08:37:29;;;;;;;0.77;0.45;;;;;;;19.48;49.60;95362.75;10373347;28;20042;-73
2023/04/01 08:43:22;;;;;;;2.38;0.40;;;;;;;19.50;49.53;95371.28;10373852;28;20441;-73
2023/04/01 08:49:08;;;;;;;0.95;0.50;;;;;;;19.52;49.45;95371.72;10373202;28;20042;-73
2023/04/01 08:54:29;;;;;;;0.47;0.40;;;;;;;19.55;49.22;95365.56;10387799;28;20041;-73
2023/04/01 09:00:17;;;;;;;3.60;0.70;;;;;;;19.56;49.00;95367.16;10372634;28;20077;-73
2023/04/01 09:06:05;;;;;;;1.40;0.40;;;;;;;19.58;49.06;95366.75;10353970;28;20054;-73
2023/04/01 09:11:31;;;;;;;2.97;0.50;;;;;;;19.60;49.07;95361.81;10372289;28;20061;-73
2023/04/01 09:17:23;;;;;;;1.67;0.40;;;;;;;19.62;48.96;95369.53;10362069;28;20057;-73
2023/04/01 09:23:17;;;;;;;0.70;0.60;;;;;;;19.61;48.91;95371.47;10372325;28;20042;-73
2023/04/01 09:29:11;;;;;;;1.45;0.50;;;;;;;19.63;48.86;95376.50;10363958;28;20054;-73
2023/04/01 09:34:54;;;;;;;1.10;0.50;;;;;;;19.64;48.95;95378.06;10331571;28;20073;-73
2023/04/01 09:40:22;;;;;;;1.40;0.70;;;;;;;19.64;48.66;95381.56;10366612;28;20042;-73
2023/04/01 09:45:47;;;;;;;1.10;0.50;;;;;;;19.65;48.48;95374.22;10379847;28;20383;-74
2023/04/01 09:51:42;;;;;;;0.75;0.50;;;;;;;19.66;47.04;95378.47;10379836;28;20049;-74
2023/04/01 09:57:11;;;;;;;2.53;0.52;;;;;;;19.65;44.97;95385.81;10344333;28;20308;-74
2023/04/01 10:02:51;;;;;;;1.65;0.55;;;;;;;19.66;46.27;95392.00;10366377;28;20056;-73
2023/04/01 10:08:35;;;;;;;0.95;0.60;;;;;;;19.65;46.10;95385.81;10379313;28;20037;-73
2023/04/01 10:14:10;;;;;;;1.13;0.60;;;;;;;19.64;46.26;95388.88;10393782;28;20084;-74
2023/04/01 10:19:45;;;;;;;1.98;0.60;;;;;;;19.65;46.38;95393.16;10378861;28;20048;-74
2023/04/01 10:25:27;;;;;;;1.25;0.70;;;;;;;19.64;46.87;95394.28;10364846;28;20046;-74
2023/04/01 10:31:30;;;;;;;1.63;0.68;;;;;;;19.65;47.38;95380.41;10365506;28;20479;-74
2023/04/01 10:36:56;;;;;;;1.17;0.50;;;;;;;19.66;47.59;95383.88;10364322;28;20084;-74
2023/04/01 10:43:11;;;;;;;4.00;0.80;;;;;;;19.67;47.92;95383.53;10365645;28;20061;-73
2023/04/01 10:48:34;;;;;;;2.35;0.50;;;;;;;19.67;48.01;95388.94;10363320;28;20061;-73
2023/04/01 10:54:25;;;;;;;2.60;0.70;;;;;;;19.67;48.33;95388.94;10364028;28;20053;-72
2023/04/01 11:00:52;;;;;;;2.40;0.68;;;;;;;19.69;48.67;95377.78;10333984;28;20565;-72
2023/04/01 11:07:16;;;;;;;2.22;0.70;;;;;;;19.69;48.95;95385.88;10291023;28;20062;-73
2023/04/01 11:12:54;;;;;;;1.60;0.60;;;;;;;19.69;49.02;95386.66;10362319;28;20062;-73
2023/04/01 11:18:41;;;;;;;1.90;0.80;;;;;;;19.69;48.77;95385.88;10376583;28;20506;-74
2023/04/01 11:24:18;;;;;;;3.47;0.65;;;;;;;19.68;49.00;95390.50;10363176;28;20057;-74
2023/04/01 11:30:31;;;;;;;6.00;0.70;;;;;;;19.68;49.17;95384.31;10353087;28;20057;-74
2023/04/01 11:36:10;;;;;;;1.30;0.70;;;;;;;19.68;49.43;95385.09;10376365;28;20541;-73
2023/04/01 11:42:09;;;;;;;3.30;0.60;;;;;;;19.68;49.70;95395.13;10376292;28;20532;-73
2023/04/01 11:48:07;;;;;;;0.65;0.50;;;;;;;19.64;44.96;95391.56;10390651;28;20065;-74
2023/04/01 11:53:36;;;;;;;1.05;0.60;;;;;;;19.53;44.70;95389.47;10361900;28;20049;-74
2023/04/01 11:59:20;;;;;;;0.90;0.60;;;;;;;19.54;43.77;95392.94;10362111;28;20387;-74
2023/04/01 12:05:04;;;;;;;1.13;0.68;;;;;;;19.55;45.33;95394.50;10390085;28;20331;-74
2023/04/01 12:10:37;;;;;;;1.27;0.60;;;;;;;19.55;45.89;95392.59;10375089;28;20061;-74
2023/04/01 12:16:29;;;;;;;1.75;0.70;;;;;;;19.56;45.91;95394.16;10374671;28;20042;-73
2023/04/01 12:21:59;;;;;;;1.38;0.57;;;;;;;19.57;46.29;95392.22;10374699;28;20088;-74
2023/04/01 12:27:39;;;;;;;1.98;0.60;;;;;;;19.56;46.46;95394.16;10369747;28;20077;-74
2023/04/01 12:33:53;;;;;;;1.15;0.70;;;;;;;19.58;46.84;95399.19;10374378;28;20064;-74
2023/04/01 12:39:39;;;;;;;1.13;0.73;;;;;;;19.58;47.03;95398.41;10352715;28;20073;-74
2023/04/01 12:45:17;;;;;;;1.00;0.60;;;;;;;19.56;47.23;95391.47;10360844;28;20041;-74
2023/04/01 12:50:58;;;;;;;1.65;0.70;;;;;;;19.59;47.21;95391.88;10388029;28;20042;-74
2023/04/01 12:56:40;;;;;;;7.95;1.23;;;;;;;19.58;47.47;95391.06;10372856;28;20046;-75
2023/04/01 13:02:10;;;;;;;4.32;1.02;;;;;;;19.58;47.84;95396.47;10346068;28;20065;-75
2023/04/01 13:08:00;;;;;;;4.97;1.10;;;;;;;19.58;48.12;95398.41;10387785;28;20065;-74
2023/04/01 13:13:44;;;;;;;8.15;0.95;;;;;;;19.58;48.37;95406.50;10358610;28;20069;-73
2023/04/01 13:19:20;;;;;;;5.47;1.20;;;;;;;19.55;48.53;95400.69;10372906;28;20050;-73
2023/04/01 13:24:46;;;;;;;7.70;0.98;;;;;;;19.57;48.53;95394.94;10374340;28;20045;-73
2023/04/01 13:30:37;;;;;;;3.53;0.95;;;;;;;19.56;48.69;95388.75;10375297;28;20061;-74
2023/04/01 13:36:08;;;;;;;2.40;0.82;;;;;;;19.55;48.62;95400.69;10351494;28;20051;-76
2023/04/01 13:41:36;;;;;;;5.20;1.20;;;;;;;19.55;48.64;95398.00;10357479;28;20042;-77
2023/04/01 13:47:18;;;;;;;3.28;1.08;;;;;;;19.54;49.01;95399.13;10386323;28;20069;-76
2023/04/01 13:53:09;;;;;;;4.15;0.95;;;;;;;19.56;49.06;95404.16;10362887;28;20049;-76
2023/04/01 13:58:56;;;;;;;2.28;1.08;;;;;;;19.55;49.21;95391.81;10386579;28;20042;-76
2023/04/01 14:04:18;;;;;;;2.60;1.13;;;;;;;19.55;49.22;95395.28;10357797;28;20050;-76
2023/04/01 14:09:41;;;;;;;2.45;1.00;;;;;;;19.55;49.47;95394.50;10386477;28;20041;-77
2023/04/01 14:15:38;;;;;;;4.32;1.10;;;;;;;19.55;49.59;95399.91;10371574;28;20057;-77
2023/04/01 14:21:04;;;;;;;13.27;1.55;;;;;;;19.56;49.74;95420.38;10357559;28;20057;-76
2023/04/01 14:26:44;;;;;;;11.18;1.50;;;;;;;19.54;49.88;95428.84;10376327;28;20449;-77
2023/04/01 14:32:32;;;;;;;3.17;1.20;;;;;;;19.54;50.08;95428.06;10364698;28;20057;-76
2023/04/01 14:38:18;;;;;;;8.73;1.25;;;;;;;19.53;50.03;95427.28;10378261;28;20045;-76
2023/04/01 14:43:56;;;;;;;6.72;1.17;;;;;;;19.53;50.01;95426.50;10392852;28;20045;-76
2023/04/01 14:49:21;;;;;;;2.95;0.85;;;;;;;19.52;50.10;95420.31;10377677;28;20046;-76
2023/04/01 14:54:44;;;;;;;4.82;1.20;;;;;;;19.52;50.01;95414.13;10363586;28;20045;-76
2023/04/01 15:00:03;;;;;;;3.30;0.98;;;;;;;19.51;50.26;95416.03;10377438;28;20053;-77
2023/04/01 15:05:27;;;;;;;3.17;1.05;;;;;;;19.51;50.25;95421.44;10391875;28;20046;-76
2023/04/01 15:10:55;;;;;;;3.95;1.00;;;;;;;19.51;50.13;95420.69;10363234;28;20414;-76
2023/04/01 15:16:25;;;;;;;6.00;1.10;;;;;;;19.51;50.49;95421.44;10384487;28;20057;-77
2023/04/01 15:22:04;;;;;;;3.15;0.90;;;;;;;19.50;50.41;95414.50;10370993;28;20108;-76
2023/04/01 15:27:36;;;;;;;4.25;1.10;;;;;;;19.50;49.55;95427.19;10385715;28;20399;-76
2023/04/01 15:33:38;;;;;;;2.08;1.00;;;;;;;19.49;49.89;95431.06;10368233;28;20037;-76
2023/04/01 15:39:18;;;;;;;3.75;1.08;;;;;;;19.47;49.94;95428.72;10340066;28;20423;-73
2023/04/01 15:44:50;;;;;;;3.58;1.08;;;;;;;19.47;50.01;95438.75;10355457;28;20479;-73
2023/04/01 15:50:31;;;;;;;2.85;1.13;;;;;;;19.45;50.01;95436.38;10390024;28;20505;-73
2023/04/01 15:55:56;;;;;;;25.25;18.02;;;;;;;19.46;50.00;95447.97;10375111;28;20064;-73
2023/04/01 16:01:19;;;;;;;14.25;10.88;;;;;;;19.46;50.28;95451.44;10389821;28;20104;-73
2023/04/01 16:06:38;;;;;;;13.38;9.75;;;;;;;19.47;50.64;95449.53;10389566;28;20414;-73
2023/04/01 16:12:21;;;;;;;15.10;8.77;;;;;;;19.45;50.84;95452.59;10389539;28;20402;-73
2023/04/01 16:18:09;;;;;;;13.60;8.00;;;;;;;19.46;50.84;95451.44;10360886;28;20045;-73
2023/04/01 16:24:18;;;;;;;11.40;7.78;;;;;;;19.46;51.10;95466.88;10360734;28;20042;-73
2023/04/01 16:29:51;;;;;;;12.82;7.15;;;;;;;19.45;50.98;95470.72;10362977;28;20108;-73
2023/04/01 16:35:17;;;;;;;12.20;7.65;;;;;;;19.45;50.90;95485.00;10359415;28;20404;-74
2023/04/01 16:40:52;;;;;;;16.00;6.95;;;;;;;19.44;50.82;95479.94;10359806;28;20526;-73
2023/04/01 16:46:12;;;;;;;11.00;6.57;;;;;;;19.44;51.06;95488.81;10357997;28;20045;-73
2023/04/01 16:51:40;;;;;;;10.07;6.38;;;;;;;19.43;51.00;95492.69;10387930;28;20050;-73
2023/04/01 16:57:09;;;;;;;11.18;6.43;;;;;;;19.42;51.02;95507.31;10372588;28;20045;-73
2023/04/01 17:02:37;;;;;;;14.25;7.68;;;;;;;19.43;51.00;95508.09;10384746;28;20406;-72
2023/04/01 17:08:06;;;;;;;12.13;6.07;;;;;;;19.43;51.32;95510.81;10384149;28;20504;-73
2023/04/01 17:13:35;;;;;;;9.23;5.97;;;;;;;19.41;51.40;95519.25;10385963;28;20402;-72
2023/04/01 17:18:58;;;;;;;12.90;6.20;;;;;;;19.42;51.42;95526.22;10386346;28;20509;-73
2023/04/01 17:24:50;;;;;;;8.40;5.80;;;;;;;19.42;51.80;95533.53;10387498;28;20050;-74
2023/04/01 17:30:24;;;;;;;9.30;5.72;;;;;;;19.42;51.66;95533.53;10374180;28;20062;-73
2023/04/01 17:36:08;;;;;;;7.25;5.50;;;;;;;19.40;51.74;95538.50;10386505;28;20096;-73
2023/04/01 17:41:45;;;;;;;7.53;5.65;;;;;;;19.41;52.04;95548.97;10387029;28;20549;-73
2023/04/01 17:47:24;;;;;;;9.57;5.38;;;;;;;19.40;52.13;95558.19;10385724;28;20050;-73
2023/04/01 17:53:08;;;;;;;7.65;4.95;;;;;;;19.39;52.15;95559.34;10385613;28;20054;-73
2023/04/01 17:58:47;;;;;;;5.90;5.00;;;;;;;19.39;52.58;95564.75;10389655;28;20054;-73
2023/04/01 18:04:15;;;;;;;;;;;;;;;19.39;53.18;95578.25;10380320;28;20046;-74
2023/04/01 18:09:38;;;;;;;6.47;4.80;;;;;;;19.38;52.70;95576.66;10394564;28;19939;-73
2023/04/01 18:15:20;;;;;;;5.38;4.60;;;;;;;19.38;52.70;95592.88;10394097;28;20076;-73
2023/04/01 18:20:52;;;;;;;6.00;4.57;;;;;;;19.36;52.80;95593.22;10393893;28;20038;-73
2023/04/01 18:26:36;;;;;;;5.72;4.30;;;;;;;19.38;52.76;95608.28;10377078;28;20058;-73
2023/04/01 18:32:36;;;;;;;7.88;4.63;;;;;;;19.36;52.63;95606.72;10393514;28;20046;-73
2023/04/01 18:38:12;;;;;;;6.68;5.07;;;;;;;19.36;53.27;95606.72;10378184;28;20044;-73
2023/04/01 18:44:03;;;;;;;6.85;4.70;;;;;;;19.36;53.37;95619.44;10392180;28;20124;-73
2023/04/01 18:49:39;;;;;;;6.32;4.47;;;;;;;19.36;53.38;95622.91;10391845;28;20537;-73
2023/04/01 18:55:02;;;;;;;5.85;4.32;;;;;;;19.35;53.26;95626.78;10364121;28;20057;-74
2023/04/01 19:00:28;;;;;;;7.28;4.65;;;;;;;19.36;53.25;95636.41;10392436;28;20052;-74
2023/04/01 19:05:50;;;;;;;8.93;4.60;;;;;;;19.37;53.12;95642.63;10377609;28;20052;-74
2023/04/01 19:11:16;;;;;;;16.80;4.57;;;;;;;19.35;53.41;95636.78;10349776;28;20045;-73
2023/04/01 19:16:53;;;;;;;5.70;4.13;;;;;;;19.35;53.50;95636.78;10392104;28;20049;-74
2023/04/01 19:22:14;;;;;;;6.75;4.28;;;;;;;19.36;53.38;95638.34;10391037;28;20048;-73
2023/04/01 19:27:42;;;;;;;8.40;4.43;;;;;;;19.34;53.14;95644.09;10385278;28;20104;-72
2023/04/01 19:33:26;;;;;;;6.13;4.33;;;;;;;19.34;53.37;95646.78;10376864;28;20406;-73
2023/04/01 19:39:07;;;;;;;6.05;4.40;;;;;;;19.33;53.27;95647.16;10391425;28;20076;-73
2023/04/01 19:44:48;;;;;;;6.45;4.25;;;;;;;19.33;53.30;95649.88;10390841;28;20052;-74
2023/04/01 19:50:34;;;;;;;5.72;3.80;;;;;;;19.34;53.89;95656.81;10362450;28;20041;-74
2023/04/01 19:56:06;;;;;;;5.07;3.72;;;;;;;19.32;53.70;95659.84;10376175;28;20041;-74
2023/04/01 20:01:38;;;;;;;6.90;4.28;;;;;;;19.32;54.01;95665.25;10388880;28;20557;-73
2023/04/01 20:07:15;;;;;;;5.32;4.05;;;;;;;19.31;53.78;95669.13;10389740;28;20073;-74
2023/04/01 20:12:59;;;;;;;5.15;3.75;;;;;;;19.32;53.66;95675.28;10388541;28;20045;-75
2023/04/01 20:18:39;;;;;;;5.22;3.90;;;;;;;19.31;53.77;95676.44;10388185;28;20037;-74
2023/04/01 20:24:06;;;;;;;4.95;4.05;;;;;;;19.31;53.60;95682.63;10387909;28;20046;-74
2023/04/01 20:29:40;;;;;;;3.97;3.58;;;;;;;19.29;53.53;95682.19;10360386;28;20068;-74
2023/04/01 20:35:33;;;;;;;6.57;4.00;;;;;;;19.30;53.72;95674.84;10387455;28;20052;-74
2023/04/01 20:41:40;;;;;;;5.90;3.72;;;;;;;19.28;53.66;95680.59;10374161;28;20415;-74
2023/04/01 20:47:09;;;;;;;4.25;3.53;;;;;;;19.28;53.39;95680.59;10316085;28;20069;-74
2023/04/01 20:53:13;;;;;;;4.43;3.35;;;;;;;19.27;53.50;95680.97;10319176;28;20409;-74
2023/04/01 20:58:48;;;;;;;4.78;3.67;;;;;;;19.27;53.15;95689.84;10347381;28;20050;-74
2023/04/01 21:04:17;;;;;;;4.72;3.47;;;;;;;19.26;53.18;95687.50;10332442;28;20050;-74
2023/04/01 21:09:48;;;;;;;6.72;4.20;;;;;;;19.27;53.01;95700.66;10346882;28;20038;-74
2023/04/01 21:15:16;;;;;;;3.50;2.97;;;;;;;19.26;53.02;95704.47;10331990;28;20421;-74
2023/04/01 21:20:57;;;;;;;4.15;3.50;;;;;;;19.24;52.97;95704.03;10346707;28;20053;-74
2023/04/01 21:26:40;;;;;;;3.88;3.42;;;;;;;19.25;53.13;95702.09;10318291;28;20058;-75
2023/04/01 21:32:12;;;;;;;4.45;3.33;;;;;;;19.24;52.96;95711.34;10332966;28;20491;-74
2023/04/01 21:37:55;;;;;;;5.25;3.80;;;;;;;19.23;52.99;95707.88;10340029;28;20042;-74
2023/04/01 21:43:28;;;;;;;4.22;3.33;;;;;;;19.23;52.91;95717.88;10298454;28;20066;-74
2023/04/01 21:49:10;;;;;;;4.95;3.30;;;;;;;19.21;53.50;95718.25;10339811;28;20053;-74
2023/04/01 21:54:54;;;;;;;3.53;3.22;;;;;;;19.21;53.44;95718.25;10326249;28;20120;-74
2023/04/01 22:00:25;;;;;;;4.50;3.38;;;;;;;19.20;53.36;95716.66;10325773;28;20046;-74
2023/04/01 22:05:51;;;;;;;4.30;3.50;;;;;;;19.20;53.38;95715.88;10339234;28;20049;-74
2023/04/01 22:11:21;;;;;;;3.90;3.25;;;;;;;19.20;53.52;95716.66;10353664;28;20042;-74
2023/04/01 22:16:56;;;;;;;4.57;3.38;;;;;;;19.19;53.30;95719.69;10338973;28;20053;-74
2023/04/01 22:22:22;;;;;;;3.80;3.33;;;;;;;19.18;52.99;95729.72;10324975;28;20046;-74
2023/04/01 22:27:47;;;;;;;5.00;3.60;;;;;;;19.16;52.90;95724.66;10332620;28;20058;-73
2023/04/01 22:33:26;;;;;;;4.07;3.20;;;;;;;19.17;52.76;95733.56;10338110;28;20049;-73
2023/04/01 22:39:03;;;;;;;4.10;3.10;;;;;;;19.15;52.60;95730.41;10352336;28;20050;-73
2023/04/01 22:44:27;;;;;;;4.07;2.97;;;;;;;19.14;52.59;95739.66;10322949;28;20065;-73
2023/04/01 22:49:57;;;;;;;3.72;2.90;;;;;;;19.13;52.45;95738.88;10352105;28;20061;-73
2023/04/01 22:55:24;;;;;;;3.40;2.80;;;;;;;19.12;52.40;95742.69;10351770;28;20475;-73
2023/04/01 23:00:59;;;;;;;3.53;3.00;;;;;;;19.12;52.46;95742.69;10337253;28;20106;-74
2023/04/01 23:06:29;;;;;;;3.97;2.78;;;;;;;19.11;52.30;95751.94;10337022;28;20046;-73
2023/04/01 23:12:07;;;;;;;4.72;2.70;;;;;;;19.10;52.32;95749.56;10323120;28;20042;-74
2023/04/01 23:17:47;;;;;;;3.05;2.72;;;;;;;19.09;52.35;95751.50;10336297;28;20046;-74
2023/04/01 23:23:40;;;;;;;2.90;2.60;;;;;;;19.08;52.33;95758.00;10336145;28;20050;-74
2023/04/01 23:29:01;;;;;;;3.35;3.05;;;;;;;19.08;52.24;95762.63;10341841;28;20057;-74
2023/04/01 23:34:26;;;;;;;3.30;2.80;;;;;;;19.08;52.30;95765.34;10335831;28;20042;-74
2023/04/01 23:39:48;;;;;;;2.83;2.50;;;;;;;19.07;52.31;95769.16;10335801;28;20073;-74
2023/04/01 23:45:17;;;;;;;3.47;2.80;;;;;;;19.06;52.28;95770.31;10350367;28;20050;-73
2023/04/01 23:50:38;;;;;;;3.38;2.80;;;;;;;19.06;52.32;95784.56;10321844;28;20077;-74
2023/04/01 23:55:57;;;;;;;2.55;2.25;;;;;;;19.04;52.16;95778.72;10334537;28;20053;-74
